sensor_id;sensor_type;location;lat;lon;timestamp;P1;durP1;ratioP1;P2;durP2;ratioP2
31974;SDS011;18500;43.618;1.474;2023-02-28T07:18:21;646.97;;;598.83;;
31974;SDS011;18500;43.618;1.474;2023-02-28T07:20:47;743.83;;;685.38;;
31974;SDS011;18500;43.618;1.474;2023-02-28T07:23:13;907.28;;;832.95;;
31974;SDS011;18500;43.618;1.474;2023-02-28T07:25:39;943.58;;;857.25;;
31974;SDS011;18500;43.618;1.474;2023-02-28T07:28:04;1062.32;;;957.05;;
31974;SDS011;18500;43.618;1.474;2023-02-28T07:30:30;872.70;;;799.45;;
31974;SDS011;18500;43.618;1.474;2023-02-28T07:32:56;944.22;;;864.83;;
31974;SDS011;18500;43.618;1.474;2023-02-28T07:35:22;738.60;;;667.80;;
31974;SDS011;18500;43.618;1.474;2023-02-28T07:37:48;746.60;;;685.97;;
31974;SDS011;18500;43.618;1.474;2023-02-28T07:40:14;860.90;;;779.80;;
31974;SDS011;18500;43.618;1.474;2023-02-28T07:42:41;719.80;;;649.35;;
31974;SDS011;18500;43.618;1.474;2023-02-28T07:45:07;930.05;;;839.00;;
31974;SDS011;18500;43.618;1.474;2023-02-28T07:47:36;856.70;;;778.22;;
31974;SDS011;18500;43.618;1.474;2023-02-28T07:50:03;870.72;;;784.33;;
31974;SDS011;18500;43.618;1.474;2023-02-28T07:52:29;1015.00;;;908.30;;
31974;SDS011;18500;43.618;1.474;2023-02-28T07:54:54;1084.82;;;968.88;;
31974;SDS011;18500;43.618;1.474;2023-02-28T07:57:20;1088.35;;;979.42;;
31974;SDS011;18500;43.618;1.474;2023-02-28T07:59:46;1035.90;;;939.78;;
31974;SDS011;18500;43.618;1.474;2023-02-28T08:02:15;849.35;;;779.60;;
31974;SDS011;18500;43.618;1.474;2023-02-28T08:04:42;400.45;;;375.55;;
31974;SDS011;18500;43.618;1.474;2023-02-28T08:07:08;768.72;;;710.65;;
31974;SDS011;18500;43.618;1.474;2023-02-28T08:09:38;663.17;;;616.75;;
31974;SDS011;18500;43.618;1.474;2023-02-28T08:12:07;420.35;;;390.65;;
31974;SDS011;18500;43.618;1.474;2023-02-28T08:14:34;547.15;;;506.88;;
31974;SDS011;18500;43.618;1.474;2023-02-28T08:17:00;612.67;;;567.60;;
31974;SDS011;18500;43.618;1.474;2023-02-28T08:19:26;619.22;;;574.17;;
31974;SDS011;18500;43.618;1.474;2023-02-28T08:21:51;410.92;;;382.90;;
31974;SDS011;18500;43.618;1.474;2023-02-28T08:24:17;609.95;;;568.10;;
31974;SDS011;18500;43.618;1.474;2023-02-28T08:26:43;550.25;;;512.85;;
31974;SDS011;18500;43.618;1.474;2023-02-28T08:29:09;694.78;;;645.38;;
31974;SDS011;18500;43.618;1.474;2023-02-28T08:31:34;563.22;;;524.42;;
31974;SDS011;18500;43.618;1.474;2023-02-28T08:34:04;732.92;;;679.88;;
31974;SDS011;18500;43.618;1.474;2023-02-28T08:36:31;492.90;;;460.58;;
31974;SDS011;18500;43.618;1.474;2023-02-28T08:38:57;617.85;;;577.28;;
31974;SDS011;18500;43.618;1.474;2023-02-28T08:41:24;636.92;;;595.45;;
31974;SDS011;18500;43.618;1.474;2023-02-28T08:43:50;650.08;;;606.10;;
31974;SDS011;18500;43.618;1.474;2023-02-28T08:46:16;811.58;;;747.90;;
31974;SDS011;18500;43.618;1.474;2023-02-28T08:48:42;471.88;;;439.05;;
31974;SDS011;18500;43.618;1.474;2023-02-28T08:51:10;593.13;;;548.22;;
31974;SDS011;18500;43.618;1.474;2023-02-28T08:53:43;255.60;;;240.05;;
31974;SDS011;18500;43.618;1.474;2023-02-28T08:56:11;263.55;;;246.48;;
31974;SDS011;18500;43.618;1.474;2023-02-28T08:58:38;483.52;;;452.33;;
31974;SDS011;18500;43.618;1.474;2023-02-28T09:01:09;499.40;;;467.60;;
31974;SDS011;18500;43.618;1.474;2023-02-28T09:03:40;550.03;;;515.85;;
31974;SDS011;18500;43.618;1.474;2023-02-28T09:06:06;601.95;;;562.60;;
31974;SDS011;18500;43.618;1.474;2023-02-28T09:08:32;389.35;;;364.75;;
31974;SDS011;18500;43.618;1.474;2023-02-28T09:10:58;307.15;;;287.52;;
31974;SDS011;18500;43.618;1.474;2023-02-28T09:13:25;311.27;;;293.75;;
31974;SDS011;18500;43.618;1.474;2023-02-28T09:15:51;310.98;;;293.55;;
31974;SDS011;18500;43.618;1.474;2023-02-28T09:18:17;290.10;;;273.98;;
31974;SDS011;18500;43.618;1.474;2023-02-28T09:20:43;429.95;;;403.35;;
31974;SDS011;18500;43.618;1.474;2023-02-28T09:23:10;492.33;;;460.00;;
31974;SDS011;18500;43.618;1.474;2023-02-28T09:25:37;254.90;;;238.32;;
31974;SDS011;18500;43.618;1.474;2023-02-28T09:28:03;365.20;;;339.08;;
31974;SDS011;18500;43.618;1.474;2023-02-28T09:30:29;459.75;;;426.55;;
31974;SDS011;18500;43.618;1.474;2023-02-28T09:32:55;450.45;;;421.15;;
31974;SDS011;18500;43.618;1.474;2023-02-28T09:35:22;516.15;;;481.38;;
31974;SDS011;18500;43.618;1.474;2023-02-28T09:37:49;534.90;;;497.77;;
31974;SDS011;18500;43.618;1.474;2023-02-28T09:40:17;383.27;;;358.50;;
31974;SDS011;18500;43.618;1.474;2023-02-28T09:42:45;473.10;;;441.40;;
31974;SDS011;18500;43.618;1.474;2023-02-28T09:47:56;738.47;;;683.20;;
31974;SDS011;18500;43.618;1.474;2023-02-28T09:50:33;745.40;;;690.80;;
31974;SDS011;18500;43.618;1.474;2023-02-28T09:53:06;559.95;;;520.63;;
31974;SDS011;18500;43.618;1.474;2023-02-28T09:58:41;372.95;;;351.27;;
31974;SDS011;18500;43.618;1.474;2023-02-28T10:01:29;512.90;;;480.30;;
31974;SDS011;18500;43.618;1.474;2023-02-28T10:06:44;556.97;;;520.78;;
31974;SDS011;18500;43.618;1.474;2023-02-28T10:09:22;660.63;;;614.92;;
31974;SDS011;18500;43.618;1.474;2023-02-28T10:11:52;623.22;;;577.38;;
31974;SDS011;18500;43.618;1.474;2023-02-28T10:14:22;1074.82;;;972.30;;
31974;SDS011;18500;43.618;1.474;2023-02-28T10:16:55;833.88;;;768.15;;
31974;SDS011;18500;43.618;1.474;2023-02-28T10:22:19;1015.55;;;925.80;;
31974;SDS011;18500;43.618;1.474;2023-02-28T10:24:54;958.72;;;880.22;;
31974;SDS011;18500;43.618;1.474;2023-02-28T10:27:29;1108.28;;;998.25;;
31974;SDS011;18500;43.618;1.474;2023-02-28T10:29:56;1029.28;;;939.63;;
31974;SDS011;18500;43.618;1.474;2023-02-28T10:32:26;992.00;;;905.97;;
31974;SDS011;18500;43.618;1.474;2023-02-28T10:37:22;816.40;;;756.40;;
31974;SDS011;18500;43.618;1.474;2023-02-28T10:39:48;918.28;;;847.25;;
31974;SDS011;18500;43.618;1.474;2023-02-28T10:42:27;802.25;;;743.20;;
31974;SDS011;18500;43.618;1.474;2023-02-28T10:45:11;803.40;;;743.20;;
31974;SDS011;18500;43.618;1.474;2023-02-28T10:47:52;995.78;;;914.72;;
31974;SDS011;18500;43.618;1.474;2023-02-28T10:56:01;1029.53;;;941.35;;
31974;SDS011;18500;43.618;1.474;2023-02-28T10:58:29;767.10;;;711.75;;
31974;SDS011;18500;43.618;1.474;2023-02-28T11:00:58;622.17;;;581.88;;
31974;SDS011;18500;43.618;1.474;2023-02-28T11:03:28;898.92;;;830.08;;
31974;SDS011;18500;43.618;1.474;2023-02-28T11:05:58;1011.67;;;924.55;;
31974;SDS011;18500;43.618;1.474;2023-02-28T11:08:30;780.60;;;727.20;;
31974;SDS011;18500;43.618;1.474;2023-02-28T11:10:56;247.45;;;234.32;;
31974;SDS011;18500;43.618;1.474;2023-02-28T11:13:27;310.15;;;293.20;;
31974;SDS011;18500;43.618;1.474;2023-02-28T11:15:58;274.35;;;258.33;;
31974;SDS011;18500;43.618;1.474;2023-02-28T11:18:29;376.02;;;354.55;;
31974;SDS011;18500;43.618;1.474;2023-02-28T11:20:59;636.67;;;595.60;;
31974;SDS011;18500;43.618;1.474;2023-02-28T11:23:27;626.70;;;586.55;;
31974;SDS011;18500;43.618;1.474;2023-02-28T11:25:58;408.55;;;386.17;;
31974;SDS011;18500;43.618;1.474;2023-02-28T11:31:16;283.02;;;268.02;;
31974;SDS011;18500;43.618;1.474;2023-02-28T11:38:42;290.98;;;275.45;;
31974;SDS011;18500;43.618;1.474;2023-02-28T11:49:30;383.90;;;362.48;;
31974;SDS011;18500;43.618;1.474;2023-02-28T12:19:20;155.95;;;147.32;;
31974;SDS011;18500;43.618;1.474;2023-02-28T12:27:10;116.43;;;110.15;;
31974;SDS011;18500;43.618;1.474;2023-02-28T12:29:42;122.88;;;115.32;;
31974;SDS011;18500;43.618;1.474;2023-02-28T12:32:36;146.73;;;138.88;;
31974;SDS011;18500;43.618;1.474;2023-02-28T12:37:53;112.80;;;106.47;;
31974;SDS011;18500;43.618;1.474;2023-02-28T12:40:26;108.82;;;102.60;;
31974;SDS011;18500;43.618;1.474;2023-02-28T12:43:07;226.43;;;213.40;;
31974;SDS011;18500;43.618;1.474;2023-02-28T12:48:01;260.42;;;245.60;;
31974;SDS011;18500;43.618;1.474;2023-02-28T12:58:18;137.48;;;129.73;;
31974;SDS011;18500;43.618;1.474;2023-02-28T13:09:15;162.25;;;153.70;;
31974;SDS011;18500;43.618;1.474;2023-02-28T13:19:33;277.40;;;262.40;;
31974;SDS011;18500;43.618;1.474;2023-02-28T13:22:05;273.95;;;259.75;;
31974;SDS011;18500;43.618;1.474;2023-02-28T13:27:48;235.93;;;223.73;;
31974;SDS011;18500;43.618;1.474;2023-02-28T13:35:45;227.50;;;215.48;;
31974;SDS011;18500;43.618;1.474;2023-02-28T13:38:24;252.25;;;238.70;;
31974;SDS011;18500;43.618;1.474;2023-02-28T13:41:29;211.25;;;200.23;;
31974;SDS011;18500;43.618;1.474;2023-02-28T13:46:27;188.32;;;177.85;;
31974;SDS011;18500;43.618;1.474;2023-02-28T13:48:53;232.40;;;220.13;;
31974;SDS011;18500;43.618;1.474;2023-02-28T13:52:20;186.55;;;176.65;;
31974;SDS011;18500;43.618;1.474;2023-02-28T14:02:30;210.20;;;199.30;;
31974;SDS011;18500;43.618;1.474;2023-02-28T14:05:15;137.40;;;129.90;;
31974;SDS011;18500;43.618;1.474;2023-02-28T14:07:51;229.40;;;217.48;;
31974;SDS011;18500;43.618;1.474;2023-02-28T14:10:24;240.60;;;224.85;;
31974;SDS011;18500;43.618;1.474;2023-02-28T14:17:58;182.45;;;173.10;;
31974;SDS011;18500;43.618;1.474;2023-02-28T14:20:29;196.43;;;185.98;;
31974;SDS011;18500;43.618;1.474;2023-02-28T14:23:04;239.27;;;226.95;;
31974;SDS011;18500;43.618;1.474;2023-02-28T14:25:58;212.88;;;201.65;;
31974;SDS011;18500;43.618;1.474;2023-02-28T14:31:13;237.93;;;225.57;;
31974;SDS011;18500;43.618;1.474;2023-02-28T14:36:23;257.85;;;244.80;;
31974;SDS011;18500;43.618;1.474;2023-02-28T14:38:59;270.00;;;256.17;;
31974;SDS011;18500;43.618;1.474;2023-02-28T14:41:46;197.23;;;186.82;;
31974;SDS011;18500;43.618;1.474;2023-02-28T14:44:13;222.20;;;210.55;;
31974;SDS011;18500;43.618;1.474;2023-02-28T14:46:41;277.90;;;263.17;;
31974;SDS011;18500;43.618;1.474;2023-02-28T14:49:13;291.48;;;276.38;;
31974;SDS011;18500;43.618;1.474;2023-02-28T14:52:02;213.45;;;202.40;;
31974;SDS011;18500;43.618;1.474;2023-02-28T14:57:03;135.48;;;128.60;;
31974;SDS011;18500;43.618;1.474;2023-02-28T14:59:31;137.35;;;130.07;;
31974;SDS011;18500;43.618;1.474;2023-02-28T15:04:52;222.55;;;210.77;;
31974;SDS011;18500;43.618;1.474;2023-02-28T15:07:21;159.15;;;150.88;;
31974;SDS011;18500;43.618;1.474;2023-02-28T15:12:45;150.13;;;142.07;;
31974;SDS011;18500;43.618;1.474;2023-02-28T15:15:17;175.23;;;166.20;;
31974;SDS011;18500;43.618;1.474;2023-02-28T15:18:01;177.38;;;168.30;;
31974;SDS011;18500;43.618;1.474;2023-02-28T15:20:30;134.02;;;127.03;;
31974;SDS011;18500;43.618;1.474;2023-02-28T15:22:57;206.88;;;196.45;;
31974;SDS011;18500;43.618;1.474;2023-02-28T15:25:24;199.93;;;189.80;;
31974;SDS011;18500;43.618;1.474;2023-02-28T15:27:54;197.18;;;187.27;;
31974;SDS011;18500;43.618;1.474;2023-02-28T15:30:29;166.93;;;157.95;;
31974;SDS011;18500;43.618;1.474;2023-02-28T15:33:29;147.13;;;139.48;;
31974;SDS011;18500;43.618;1.474;2023-02-28T15:35:50;187.93;;;178.45;;
31974;SDS011;18500;43.618;1.474;2023-02-28T15:38:26;176.55;;;167.25;;
31974;SDS011;18500;43.618;1.474;2023-02-28T15:40:56;159.50;;;151.27;;
31974;SDS011;18500;43.618;1.474;2023-02-28T15:43:30;164.13;;;155.63;;
31974;SDS011;18500;43.618;1.474;2023-02-28T15:51:23;144.68;;;136.93;;
31974;SDS011;18500;43.618;1.474;2023-02-28T15:53:56;152.75;;;144.88;;
31974;SDS011;18500;43.618;1.474;2023-02-28T15:56:45;167.55;;;158.88;;
31974;SDS011;18500;43.618;1.474;2023-02-28T15:59:19;171.25;;;162.27;;
31974;SDS011;18500;43.618;1.474;2023-02-28T16:01:47;160.45;;;151.93;;
31974;SDS011;18500;43.618;1.474;2023-02-28T16:07:31;160.07;;;151.27;;
31974;SDS011;18500;43.618;1.474;2023-02-28T16:09:58;130.13;;;122.88;;
31974;SDS011;18500;43.618;1.474;2023-02-28T16:12:25;167.57;;;158.20;;
31974;SDS011;18500;43.618;1.474;2023-02-28T16:14:53;153.75;;;145.70;;
31974;SDS011;18500;43.618;1.474;2023-02-28T16:17:21;166.95;;;158.20;;
31974;SDS011;18500;43.618;1.474;2023-02-28T16:19:52;129.68;;;122.95;;
31974;SDS011;18500;43.618;1.474;2023-02-28T16:22:18;150.57;;;142.65;;
31974;SDS011;18500;43.618;1.474;2023-02-28T16:24:44;149.00;;;141.30;;
31974;SDS011;18500;43.618;1.474;2023-02-28T16:27:14;126.28;;;119.80;;
31974;SDS011;18500;43.618;1.474;2023-02-28T16:29:43;156.90;;;148.90;;
31974;SDS011;18500;43.618;1.474;2023-02-28T16:32:10;154.32;;;146.15;;
31974;SDS011;18500;43.618;1.474;2023-02-28T16:34:39;123.18;;;116.60;;
31974;SDS011;18500;43.618;1.474;2023-02-28T16:37:09;192.73;;;182.27;;
31974;SDS011;18500;43.618;1.474;2023-02-28T16:39:37;88.97;;;83.97;;
31974;SDS011;18500;43.618;1.474;2023-02-28T16:42:02;79.25;;;74.82;;
31974;SDS011;18500;43.618;1.474;2023-02-28T16:44:32;165.25;;;156.20;;
31974;SDS011;18500;43.618;1.474;2023-02-28T16:47:00;121.18;;;114.68;;
31974;SDS011;18500;43.618;1.474;2023-02-28T16:49:26;144.80;;;137.30;;
31974;SDS011;18500;43.618;1.474;2023-02-28T16:51:52;109.50;;;103.70;;
31974;SDS011;18500;43.618;1.474;2023-02-28T16:54:18;144.98;;;137.35;;
31974;SDS011;18500;43.618;1.474;2023-02-28T16:56:44;179.40;;;170.02;;
31974;SDS011;18500;43.618;1.474;2023-02-28T16:59:12;95.60;;;90.30;;
31974;SDS011;18500;43.618;1.474;2023-02-28T17:01:39;111.70;;;105.60;;
31974;SDS011;18500;43.618;1.474;2023-02-28T17:04:05;122.20;;;115.18;;
31974;SDS011;18500;43.618;1.474;2023-02-28T17:06:30;225.50;;;212.82;;
31974;SDS011;18500;43.618;1.474;2023-02-28T17:08:59;391.58;;;368.50;;
31974;SDS011;18500;43.618;1.474;2023-02-28T17:11:24;175.02;;;165.57;;
31974;SDS011;18500;43.618;1.474;2023-02-28T17:13:50;121.50;;;114.22;;
31974;SDS011;18500;43.618;1.474;2023-02-28T17:16:26;153.18;;;144.40;;
31974;SDS011;18500;43.618;1.474;2023-02-28T17:18:58;141.70;;;133.85;;
31974;SDS011;18500;43.618;1.474;2023-02-28T17:21:25;310.95;;;293.30;;
31974;SDS011;18500;43.618;1.474;2023-02-28T17:23:51;354.85;;;334.35;;
31974;SDS011;18500;43.618;1.474;2023-02-28T17:26:18;194.50;;;183.80;;
31974;SDS011;18500;43.618;1.474;2023-02-28T17:28:48;204.73;;;193.35;;
31974;SDS011;18500;43.618;1.474;2023-02-28T17:31:14;506.52;;;477.63;;
31974;SDS011;18500;43.618;1.474;2023-02-28T17:33:40;311.02;;;293.60;;
31974;SDS011;18500;43.618;1.474;2023-02-28T17:36:06;421.98;;;398.17;;
31974;SDS011;18500;43.618;1.474;2023-02-28T17:41:03;191.45;;;180.68;;
31974;SDS011;18500;43.618;1.474;2023-02-28T17:43:29;157.95;;;149.18;;
31974;SDS011;18500;43.618;1.474;2023-02-28T17:45:55;279.55;;;263.65;;
31974;SDS011;18500;43.618;1.474;2023-02-28T17:48:21;313.25;;;295.58;;
31974;SDS011;18500;43.618;1.474;2023-02-28T17:50:47;365.40;;;345.38;;
31974;SDS011;18500;43.618;1.474;2023-02-28T17:53:12;365.70;;;345.60;;
31974;SDS011;18500;43.618;1.474;2023-02-28T17:55:38;174.40;;;164.50;;
31974;SDS011;18500;43.618;1.474;2023-02-28T17:58:05;353.60;;;333.85;;
31974;SDS011;18500;43.618;1.474;2023-02-28T18:00:30;213.40;;;201.75;;
31974;SDS011;18500;43.618;1.474;2023-02-28T18:02:58;415.52;;;392.48;;
31974;SDS011;18500;43.618;1.474;2023-02-28T18:05:24;423.30;;;399.98;;
31974;SDS011;18500;43.618;1.474;2023-02-28T18:07:50;316.48;;;298.50;;
31974;SDS011;18500;43.618;1.474;2023-02-28T18:12:49;410.67;;;388.02;;
31974;SDS011;18500;43.618;1.474;2023-02-28T18:15:17;379.55;;;358.70;;
31974;SDS011;18500;43.618;1.474;2023-02-28T18:17:45;352.15;;;332.85;;
31974;SDS011;18500;43.618;1.474;2023-02-28T18:20:11;401.63;;;379.77;;
31974;SDS011;18500;43.618;1.474;2023-02-28T18:22:37;350.98;;;329.23;;
31974;SDS011;18500;43.618;1.474;2023-02-28T18:25:04;442.40;;;417.63;;
31974;SDS011;18500;43.618;1.474;2023-02-28T18:27:33;409.23;;;387.00;;
31974;SDS011;18500;43.618;1.474;2023-02-28T18:29:59;361.90;;;341.40;;
31974;SDS011;18500;43.618;1.474;2023-02-28T18:32:25;286.88;;;270.60;;
31974;SDS011;18500;43.618;1.474;2023-02-28T18:34:50;302.45;;;285.88;;
31974;SDS011;18500;43.618;1.474;2023-02-28T18:37:16;304.45;;;286.60;;
31974;SDS011;18500;43.618;1.474;2023-02-28T18:39:43;420.70;;;397.55;;
31974;SDS011;18500;43.618;1.474;2023-02-28T18:42:09;254.30;;;240.30;;
31974;SDS011;18500;43.618;1.474;2023-02-28T18:44:38;322.33;;;304.38;;
31974;SDS011;18500;43.618;1.474;2023-02-28T18:47:03;416.08;;;393.60;;
31974;SDS011;18500;43.618;1.474;2023-02-28T18:49:32;367.73;;;346.67;;
31974;SDS011;18500;43.618;1.474;2023-02-28T18:51:59;347.63;;;328.60;;
31974;SDS011;18500;43.618;1.474;2023-02-28T18:54:25;424.35;;;401.00;;
31974;SDS011;18500;43.618;1.474;2023-02-28T18:56:52;353.83;;;334.50;;
31974;SDS011;18500;43.618;1.474;2023-02-28T18:59:18;397.45;;;375.45;;
31974;SDS011;18500;43.618;1.474;2023-02-28T19:01:44;249.35;;;235.63;;
31974;SDS011;18500;43.618;1.474;2023-02-28T19:04:13;295.35;;;279.52;;
31974;SDS011;18500;43.618;1.474;2023-02-28T19:06:39;355.20;;;336.50;;
31974;SDS011;18500;43.618;1.474;2023-02-28T19:09:06;387.90;;;366.75;;
31974;SDS011;18500;43.618;1.474;2023-02-28T19:11:32;242.95;;;230.00;;
31974;SDS011;18500;43.618;1.474;2023-02-28T19:13:58;322.55;;;305.55;;
31974;SDS011;18500;43.618;1.474;2023-02-28T19:16:24;247.18;;;233.93;;
31974;SDS011;18500;43.618;1.474;2023-02-28T19:18:51;252.68;;;239.00;;
31974;SDS011;18500;43.618;1.474;2023-02-28T19:21:18;270.40;;;255.95;;
31974;SDS011;18500;43.618;1.474;2023-02-28T19:23:46;329.60;;;310.88;;
31974;SDS011;18500;43.618;1.474;2023-02-28T19:26:13;246.25;;;232.13;;
31974;SDS011;18500;43.618;1.474;2023-02-28T19:28:44;287.08;;;270.95;;
31974;SDS011;18500;43.618;1.474;2023-02-28T19:31:14;307.65;;;290.38;;
31974;SDS011;18500;43.618;1.474;2023-02-28T19:33:41;320.13;;;302.27;;
31974;SDS011;18500;43.618;1.474;2023-02-28T19:36:08;334.65;;;315.48;;
31974;SDS011;18500;43.618;1.474;2023-02-28T19:38:36;339.08;;;320.13;;
31974;SDS011;18500;43.618;1.474;2023-02-28T19:41:03;292.40;;;275.67;;
31974;SDS011;18500;43.618;1.474;2023-02-28T19:43:30;323.48;;;305.52;;
31974;SDS011;18500;43.618;1.474;2023-02-28T19:45:56;324.48;;;306.42;;
31974;SDS011;18500;43.618;1.474;2023-02-28T19:48:22;337.77;;;319.02;;
31974;SDS011;18500;43.618;1.474;2023-02-28T19:50:50;544.05;;;507.33;;
31974;SDS011;18500;43.618;1.474;2023-02-28T19:53:31;564.95;;;527.60;;
31974;SDS011;18500;43.618;1.474;2023-02-28T19:55:58;353.20;;;333.25;;
31974;SDS011;18500;43.618;1.474;2023-02-28T19:58:24;349.15;;;329.60;;
31974;SDS011;18500;43.618;1.474;2023-02-28T20:00:50;696.33;;;648.00;;
31974;SDS011;18500;43.618;1.474;2023-02-28T20:03:16;500.95;;;467.98;;
31974;SDS011;18500;43.618;1.474;2023-02-28T20:05:42;431.30;;;404.45;;
31974;SDS011;18500;43.618;1.474;2023-02-28T20:08:08;354.65;;;332.90;;
31974;SDS011;18500;43.618;1.474;2023-02-28T20:10:34;292.33;;;275.70;;
31974;SDS011;18500;43.618;1.474;2023-02-28T20:13:00;292.10;;;274.95;;
31974;SDS011;18500;43.618;1.474;2023-02-28T20:15:26;327.20;;;306.95;;
31974;SDS011;18500;43.618;1.474;2023-02-28T20:17:52;445.27;;;416.35;;
31974;SDS011;18500;43.618;1.474;2023-02-28T20:20:17;901.67;;;829.38;;
31974;SDS011;18500;43.618;1.474;2023-02-28T20:22:43;651.75;;;607.92;;
31974;SDS011;18500;43.618;1.474;2023-02-28T20:25:09;254.65;;;238.90;;
31974;SDS011;18500;43.618;1.474;2023-02-28T20:27:35;364.48;;;339.50;;
31974;SDS011;18500;43.618;1.474;2023-02-28T20:30:02;395.63;;;368.25;;
31974;SDS011;18500;43.618;1.474;2023-02-28T20:32:28;264.00;;;247.13;;
31974;SDS011;18500;43.618;1.474;2023-02-28T20:34:54;235.02;;;220.45;;
31974;SDS011;18500;43.618;1.474;2023-02-28T20:37:20;468.42;;;436.15;;
31974;SDS011;18500;43.618;1.474;2023-02-28T20:39:46;314.70;;;294.35;;
31974;SDS011;18500;43.618;1.474;2023-02-28T20:42:13;384.95;;;359.08;;
31974;SDS011;18500;43.618;1.474;2023-02-28T20:44:39;931.33;;;857.35;;
31974;SDS011;18500;43.618;1.474;2023-02-28T20:47:04;695.53;;;647.25;;
31974;SDS011;18500;43.618;1.474;2023-02-28T20:49:30;796.53;;;736.60;;
31974;SDS011;18500;43.618;1.474;2023-02-28T20:51:56;890.50;;;823.83;;
31974;SDS011;18500;43.618;1.474;2023-02-28T20:54:21;867.95;;;800.35;;
31974;SDS011;18500;43.618;1.474;2023-02-28T20:56:47;844.83;;;780.53;;
31974;SDS011;18500;43.618;1.474;2023-02-28T20:59:12;835.00;;;771.40;;
31974;SDS011;18500;43.618;1.474;2023-02-28T21:01:38;849.38;;;784.90;;
31974;SDS011;18500;43.618;1.474;2023-02-28T21:04:06;790.35;;;732.50;;
31974;SDS011;18500;43.618;1.474;2023-02-28T21:06:33;826.60;;;766.33;;
31974;SDS011;18500;43.618;1.474;2023-02-28T21:09:02;766.40;;;710.92;;
31974;SDS011;18500;43.618;1.474;2023-02-28T21:11:32;752.08;;;698.65;;
31974;SDS011;18500;43.618;1.474;2023-02-28T21:14:04;713.72;;;664.45;;
31974;SDS011;18500;43.618;1.474;2023-02-28T21:16:33;746.55;;;695.72;;
31974;SDS011;18500;43.618;1.474;2023-02-28T21:18:59;714.35;;;666.13;;
31974;SDS011;18500;43.618;1.474;2023-02-28T21:21:34;717.83;;;670.38;;
31974;SDS011;18500;43.618;1.474;2023-02-28T21:24:09;698.97;;;652.75;;
31974;SDS011;18500;43.618;1.474;2023-02-28T21:26:37;715.75;;;666.58;;
31974;SDS011;18500;43.618;1.474;2023-02-28T21:29:04;721.22;;;670.95;;
31974;SDS011;18500;43.618;1.474;2023-02-28T21:31:31;699.70;;;652.65;;
31974;SDS011;18500;43.618;1.474;2023-02-28T21:33:58;660.28;;;616.15;;
31974;SDS011;18500;43.618;1.474;2023-02-28T21:36:33;613.28;;;573.95;;
31974;SDS011;18500;43.618;1.474;2023-02-28T21:39:04;450.73;;;423.70;;
31974;SDS011;18500;43.618;1.474;2023-02-28T21:41:37;459.63;;;431.67;;
31974;SDS011;18500;43.618;1.474;2023-02-28T21:44:03;469.05;;;440.15;;
31974;SDS011;18500;43.618;1.474;2023-02-28T21:46:29;482.92;;;453.17;;
31974;SDS011;18500;43.618;1.474;2023-02-28T21:48:55;448.52;;;420.70;;
31974;SDS011;18500;43.618;1.474;2023-02-28T21:51:26;423.65;;;396.60;;
31974;SDS011;18500;43.618;1.474;2023-02-28T21:53:56;475.33;;;434.30;;
31974;SDS011;18500;43.618;1.474;2023-02-28T21:56:23;504.02;;;464.95;;
31974;SDS011;18500;43.618;1.474;2023-02-28T21:58:51;574.88;;;525.28;;
31974;SDS011;18500;43.618;1.474;2023-02-28T22:01:24;487.75;;;446.00;;
